createdAt,value
2019-06-07T00:01:05.277Z,92.80
2019-06-07T00:03:13.794Z,91.70
2019-06-07T00:05:12.708Z,90.60
2019-06-07T00:07:15.000Z,90.00
2019-06-07T00:09:22.365Z,86.90
2019-06-07T00:11:21.568Z,88.10
2019-06-07T00:13:23.326Z,88.10
2019-06-07T00:15:28.720Z,83.70
2019-06-07T00:17:28.570Z,86.10
2019-06-07T00:19:30.236Z,87.40
2019-06-07T00:22:13.020Z,89.50
2019-06-07T00:23:35.469Z,87.70
2019-06-07T00:25:37.133Z,87.60
2019-06-07T00:27:38.806Z,85.50
2019-06-07T00:29:40.517Z,85.30
2019-06-07T00:31:42.204Z,82.70
2019-06-07T00:33:43.954Z,82.70
2019-06-07T00:35:45.643Z,88.30
2019-06-07T00:37:47.314Z,90.60
2019-06-07T00:40:12.980Z,90.20
2019-06-07T00:41:52.601Z,88.90
2019-06-07T00:43:54.361Z,88.50
2019-06-07T00:45:56.035Z,89.00
2019-06-07T00:47:57.728Z,85.90
2019-06-07T00:49:59.413Z,85.90
2019-06-07T00:52:01.106Z,83.80
2019-06-07T00:54:02.862Z,83.80
2019-06-07T00:56:04.541Z,81.90
2019-06-07T00:58:06.196Z,80.90
2019-06-07T01:00:08.278Z,82.20
2019-06-07T01:02:09.947Z,82.20
2019-06-07T01:04:13.162Z,87.00
2019-06-07T01:06:15.219Z,86.70
2019-06-07T01:08:20.024Z,86.60
2019-06-07T01:10:46.314Z,89.20
2019-06-07T01:12:26.842Z,87.70
2019-06-07T01:14:28.702Z,89.10
2019-06-07T01:16:54.811Z,86.60
2019-06-07T01:18:39.946Z,87.80
2019-06-07T01:20:37.808Z,87.90
2019-06-07T01:22:39.559Z,88.20
2019-06-07T01:24:41.314Z,87.40
2019-06-07T01:26:42.986Z,86.10
2019-06-07T01:28:44.677Z,86.40
2019-06-07T01:30:46.452Z,85.00
2019-06-07T01:32:48.110Z,84.30
2019-06-07T01:34:49.771Z,81.40
2019-06-07T01:36:51.458Z,81.40
2019-06-07T01:38:53.139Z,82.60
2019-06-07T01:40:54.826Z,86.00
2019-06-07T01:42:56.485Z,86.50
2019-06-07T01:44:58.150Z,83.50
2019-06-07T01:46:59.824Z,79.10
2019-06-07T01:49:01.497Z,77.00
2019-06-07T01:51:03.190Z,77.90
2019-06-07T01:53:04.864Z,78.80
2019-06-07T01:55:06.529Z,79.30
2019-06-07T01:57:08.214Z,78.70
2019-06-07T01:59:09.887Z,83.00
2019-06-07T02:01:11.556Z,84.30
2019-06-07T02:03:13.234Z,87.50
2019-06-07T02:05:14.942Z,87.80
2019-06-07T02:07:16.623Z,89.50
2019-06-07T02:09:18.500Z,87.30
2019-06-07T02:11:20.932Z,86.50
2019-06-07T02:13:27.439Z,85.90
2019-06-07T02:15:31.249Z,84.60
2019-06-07T02:17:33.178Z,84.50
2019-06-07T02:19:35.404Z,84.10
2019-06-07T02:21:37.160Z,87.70
2019-06-07T02:23:38.824Z,86.00
2019-06-07T02:25:48.597Z,84.50
2019-06-07T02:27:44.133Z,83.60
2019-06-07T02:29:45.850Z,80.60
2019-06-07T02:31:47.534Z,78.60
2019-06-07T02:33:49.526Z,79.60
2019-06-07T02:35:51.269Z,79.10
2019-06-07T02:37:53.250Z,80.60
2019-06-07T02:39:54.914Z,80.10
2019-06-07T02:41:56.619Z,84.30
2019-06-07T02:43:58.294Z,83.40
2019-06-07T02:46:23.893Z,80.50
2019-06-07T02:48:03.681Z,74.40
2019-06-07T02:50:06.233Z,73.70
2019-06-07T02:52:07.989Z,73.10
2019-06-07T02:54:09.939Z,72.40
2019-06-07T02:56:37.457Z,73.50
2019-06-07T02:58:15.485Z,75.00
2019-06-07T03:00:58.510Z,76.30
2019-06-07T03:02:41.712Z,74.80
2019-06-07T03:04:44.905Z,80.80
2019-06-07T03:06:47.290Z,82.40
2019-06-07T03:08:49.250Z,89.10
2019-06-07T03:10:50.934Z,89.20
2019-06-07T03:12:52.857Z,87.40
2019-06-07T03:14:54.532Z,87.40
2019-06-07T03:17:06.554Z,87.10
2019-06-07T03:19:31.352Z,85.60
2019-06-07T03:21:37.258Z,84.60
2019-06-07T03:23:39.467Z,86.50
2019-06-07T03:25:41.482Z,85.60
2019-06-07T03:27:49.435Z,82.20
2019-06-07T03:29:46.730Z,78.80
2019-06-07T03:31:48.519Z,80.50
2019-06-07T03:33:50.281Z,84.30
2019-06-07T03:35:51.941Z,85.90
2019-06-07T03:37:53.635Z,85.60
2019-06-07T03:39:55.296Z,85.70
2019-06-07T03:42:06.240Z,82.60
2019-06-07T03:44:01.081Z,81.10
2019-06-07T03:46:02.816Z,78.60
2019-06-07T03:48:04.498Z,77.90
2019-06-07T03:50:06.229Z,77.90
2019-06-07T03:52:07.953Z,77.30
2019-06-07T03:54:09.633Z,79.80
2019-06-07T03:56:12.740Z,81.20
2019-06-07T03:58:31.247Z,78.80
2019-06-07T04:00:18.466Z,80.20
2019-06-07T04:02:20.141Z,82.40
2019-06-07T04:04:21.818Z,83.40
2019-06-07T04:06:23.487Z,86.30
2019-06-07T04:08:25.289Z,87.00
2019-06-07T04:10:45.845Z,87.40
2019-06-07T04:12:31.842Z,88.00
2019-06-07T04:14:35.254Z,88.50
2019-06-07T04:16:43.579Z,89.70
2019-06-07T04:18:42.477Z,89.40
2019-06-07T04:20:44.658Z,90.20
2019-06-07T04:22:46.676Z,89.00
2019-06-07T04:24:48.367Z,89.00
2019-06-07T04:26:50.105Z,89.20
2019-06-07T04:29:31.622Z,89.20
2019-06-07T04:30:55.631Z,88.90
2019-06-07T04:32:57.320Z,90.60
2019-06-07T04:34:58.990Z,90.50
2019-06-07T04:37:00.661Z,91.20
2019-06-07T04:39:05.430Z,91.90
2019-06-07T04:41:07.207Z,92.80
2019-06-07T04:43:08.998Z,92.70
2019-06-07T04:45:32.485Z,92.90
2019-06-07T04:47:14.632Z,93.20
2019-06-07T04:49:16.317Z,93.60
2019-06-07T04:51:18.683Z,94.20
2019-06-07T04:53:20.446Z,95.10
2019-06-07T04:55:22.425Z,96.20
2019-06-07T04:57:24.096Z,96.70
2019-06-07T05:00:04.249Z,97.50
2019-06-07T05:01:30.790Z,98.20
2019-06-07T05:03:36.079Z,97.90
2019-06-07T05:05:39.662Z,98.30
2019-06-07T05:07:43.873Z,98.00
2019-06-07T05:09:43.609Z,98.20
2019-06-07T05:11:45.302Z,98.50
2019-06-07T05:13:47.041Z,98.50
2019-06-07T05:15:48.966Z,96.60
2019-06-07T05:17:50.688Z,96.60
2019-06-07T05:19:52.366Z,97.30
2019-06-07T05:22:04.548Z,96.00
2019-06-07T05:24:09.273Z,96.10
2019-06-07T05:26:01.202Z,96.00
2019-06-07T05:28:02.881Z,93.20
2019-06-07T05:30:13.621Z,94.90
2019-06-07T05:32:08.371Z,94.90
2019-06-07T05:34:10.055Z,95.00
2019-06-07T05:36:11.722Z,94.00
2019-06-07T05:38:14.944Z,93.30
2019-06-07T05:40:23.432Z,92.50
2019-06-07T05:42:25.113Z,92.10
2019-06-07T05:44:26.790Z,92.30
2019-06-07T05:46:28.458Z,87.30
2019-06-07T05:48:30.416Z,90.50
2019-06-07T05:50:43.607Z,83.90
2019-06-07T05:52:39.509Z,88.10
2019-06-07T05:54:40.533Z,86.80
2019-06-07T05:56:45.221Z,87.60
2019-06-07T05:58:46.886Z,81.30
2019-06-07T06:00:48.563Z,85.80
2019-06-07T06:03:04.077Z,79.30
2019-06-07T06:04:53.808Z,81.10
2019-06-07T06:06:55.468Z,77.30
2019-06-07T06:09:12.984Z,71.40
2019-06-07T06:11:00.765Z,70.80
2019-06-07T06:13:02.458Z,63.00
2019-06-07T06:15:04.185Z,66.50
2019-06-07T06:17:05.874Z,70.80
2019-06-07T06:19:07.635Z,58.90
2019-06-07T06:21:18.895Z,54.10
2019-06-07T06:23:13.180Z,57.20
2019-06-07T06:25:33.442Z,65.80
2019-06-07T06:28:02.724Z,61.70
2019-06-07T06:29:22.958Z,59.70
2019-06-07T06:31:24.665Z,58.10
2019-06-07T06:33:34.094Z,55.00
2019-06-07T06:35:30.038Z,51.40
2019-06-07T06:37:31.713Z,45.60
2019-06-07T06:39:33.384Z,50.70
2019-06-07T06:41:48.425Z,40.80
2019-06-07T06:43:41.469Z,37.40
2019-06-07T06:45:42.827Z,38.60
2019-06-07T06:47:48.870Z,43.00
2019-06-07T06:49:53.979Z,40.70
2019-06-07T06:51:53.852Z,30.10
2019-06-07T06:53:55.806Z,30.20
2019-06-07T06:55:57.489Z,41.70
2019-06-07T06:57:59.153Z,20.40
2019-06-07T07:00:01.144Z,28.30
2019-06-07T07:02:02.934Z,24.60
2019-06-07T07:04:12.766Z,24.00
2019-06-07T07:06:25.104Z,27.40
2019-06-07T07:08:11.854Z,26.20
2019-06-07T07:10:25.401Z,23.90
2019-06-07T07:12:27.070Z,19.70
2019-06-07T07:14:28.752Z,18.80
2019-06-07T07:16:30.763Z,17.00
2019-06-07T07:18:33.145Z,16.90
2019-06-07T07:20:35.187Z,17.70
2019-06-07T07:22:36.863Z,21.00
2019-06-07T07:24:38.789Z,17.90
2019-06-07T07:26:40.468Z,21.30
2019-06-07T07:28:43.076Z,17.80
2019-06-07T07:30:47.363Z,14.90
2019-06-07T07:32:52.872Z,13.80
2019-06-07T07:35:00.122Z,13.80
2019-06-07T07:36:59.691Z,17.00
2019-06-07T07:39:04.822Z,19.20
2019-06-07T07:41:14.527Z,6.90
2019-06-07T07:43:08.208Z,8.90
2019-06-07T07:45:10.016Z,10.90
2019-06-07T07:47:11.752Z,12.40
2019-06-07T07:49:13.420Z,7.30
2019-06-07T07:51:15.113Z,8.90
2019-06-07T07:53:16.775Z,11.10
2019-06-07T07:55:18.524Z,9.80
2019-06-07T07:57:20.526Z,10.10
2019-06-07T07:59:40.674Z,11.00
2019-06-07T08:01:25.860Z,11.30
2019-06-07T08:03:27.526Z,13.60
2019-06-07T08:05:42.511Z,8.90
2019-06-07T08:07:33.133Z,7.40
2019-06-07T08:09:35.102Z,10.60
2019-06-07T08:11:36.780Z,11.40
2019-06-07T08:13:38.457Z,11.60
2019-06-07T08:15:40.139Z,9.00
2019-06-07T08:17:41.853Z,11.40
2019-06-07T08:19:43.869Z,13.70
2019-06-07T08:21:47.571Z,13.50
2019-06-07T08:23:51.632Z,9.20
2019-06-07T08:25:56.573Z,9.40
2019-06-07T08:27:58.869Z,7.50
2019-06-07T08:30:25.977Z,7.30
2019-06-07T08:32:04.226Z,7.90
2019-06-07T08:34:05.893Z,9.10
2019-06-07T08:36:19.980Z,8.40
2019-06-07T08:38:25.811Z,7.50
2019-06-07T08:40:15.238Z,10.00
2019-06-07T08:42:22.023Z,13.60
2019-06-07T08:44:23.638Z,11.80
2019-06-07T08:46:24.344Z,9.30
2019-06-07T08:48:29.939Z,10.80
2019-06-07T08:50:29.697Z,6.80
2019-06-07T08:52:31.357Z,4.60
2019-06-07T08:54:33.030Z,6.00
2019-06-07T08:56:34.994Z,3.40
2019-06-07T08:58:37.031Z,3.30
2019-06-07T09:00:47.510Z,3.20
2019-06-07T09:02:42.384Z,2.90
2019-06-07T09:04:44.050Z,1.00
2019-06-07T09:08:49.294Z,2.50
2019-06-07T09:10:54.081Z,6.00
2019-06-07T09:13:00.349Z,3.50
2019-06-07T09:15:12.061Z,4.10
2019-06-07T09:17:11.014Z,3.70
2019-06-07T09:19:10.690Z,4.20
2019-06-07T09:21:09.705Z,5.60
2019-06-07T09:23:17.098Z,4.20
2019-06-07T09:25:21.189Z,7.80
2019-06-07T09:27:18.888Z,7.10
2019-06-07T09:29:20.565Z,7.50
2019-06-07T09:31:22.250Z,4.00
2019-06-07T09:33:23.919Z,3.50
2019-06-07T09:35:25.608Z,3.70
2019-06-07T09:39:30.865Z,2.00
2019-06-07T09:41:46.923Z,1.30
2019-06-07T09:45:39.686Z,3.70
2019-06-07T09:47:41.363Z,1.80
2019-06-07T09:49:43.044Z,4.40
2019-06-07T09:51:44.997Z,3.10
2019-06-07T09:53:46.664Z,3.10
2019-06-07T09:55:48.330Z,1.60
2019-06-07T09:57:50.002Z,2.00
2019-06-07T09:59:51.670Z,4.10
2019-06-07T10:01:53.344Z,1.00
2019-06-07T10:03:55.016Z,1.00
2019-06-07T10:05:59.559Z,1.00
2019-06-07T10:08:16.089Z,1.00
2019-06-07T10:10:22.280Z,1.00
2019-06-07T10:12:08.592Z,3.60
2019-06-07T10:14:10.345Z,1.50
2019-06-07T10:16:12.009Z,1.00
2019-06-07T10:18:13.691Z,1.00
2019-06-07T10:20:15.567Z,1.00
2019-06-07T10:22:17.250Z,1.00
2019-06-07T10:24:18.904Z,1.00
2019-06-07T10:26:20.593Z,1.00
2019-06-07T10:28:22.264Z,1.00
2019-06-07T10:30:23.924Z,1.00
2019-06-07T10:32:25.610Z,1.00
2019-06-07T10:34:27.286Z,1.00
2019-06-07T10:36:28.942Z,1.00
2019-06-07T10:38:30.626Z,1.00
2019-06-07T10:40:32.294Z,1.00
2019-06-07T10:42:33.964Z,1.00
2019-06-07T10:44:35.885Z,1.00
2019-06-07T10:46:37.614Z,1.00
2019-06-07T10:48:39.550Z,1.00
2019-06-07T10:50:41.494Z,1.00
2019-06-07T10:52:43.175Z,1.00
2019-06-07T10:54:45.399Z,1.00
2019-06-07T10:56:47.066Z,1.00
2019-06-07T10:58:48.739Z,1.00
2019-06-07T11:00:51.048Z,1.00
2019-06-07T11:02:55.259Z,1.00
2019-06-07T11:04:56.793Z,1.00
2019-06-07T11:06:58.463Z,1.00
2019-06-07T11:09:00.161Z,1.00
2019-06-07T11:11:02.330Z,1.00
2019-06-07T11:13:04.125Z,1.00
2019-06-07T11:15:06.635Z,1.00
2019-06-07T11:17:09.368Z,1.00
2019-06-07T11:19:14.436Z,1.00
2019-06-07T11:21:15.006Z,1.00
2019-06-07T11:23:16.682Z,1.00
2019-06-07T11:25:18.690Z,1.00
2019-06-07T11:27:20.426Z,1.00
2019-06-07T11:29:22.097Z,1.00
2019-06-07T11:31:23.770Z,1.00
2019-06-07T11:33:25.444Z,1.00
2019-06-07T11:35:27.105Z,1.00
2019-06-07T11:37:28.764Z,1.00
2019-06-07T11:39:30.456Z,1.00
2019-06-07T11:41:32.219Z,1.00
2019-06-07T11:43:34.189Z,1.00
2019-06-07T11:45:36.347Z,1.00
2019-06-07T11:47:38.297Z,1.00
2019-06-07T11:49:39.982Z,1.00
2019-06-07T11:51:41.664Z,1.00
2019-06-07T11:53:43.669Z,1.00
2019-06-07T11:55:45.345Z,1.00
2019-06-07T11:57:47.093Z,1.00
2019-06-07T11:59:49.074Z,1.00
2019-06-07T12:01:50.775Z,1.00
2019-06-07T12:03:52.450Z,1.00
2019-06-07T12:05:54.128Z,1.00
2019-06-07T12:07:57.128Z,1.00
2019-06-07T12:09:59.210Z,1.00
2019-06-07T12:12:00.881Z,1.00
2019-06-07T12:14:03.381Z,1.00
2019-06-07T12:16:05.137Z,1.00
2019-06-07T12:18:06.890Z,1.00
2019-06-07T12:20:10.290Z,1.00
2019-06-07T12:22:12.138Z,1.00
2019-06-07T12:24:14.209Z,1.00
2019-06-07T12:26:16.600Z,1.00
2019-06-07T12:28:18.828Z,1.00
2019-06-07T12:30:27.547Z,1.00
2019-06-07T12:32:24.511Z,1.00
2019-06-07T12:34:26.173Z,1.00
2019-06-07T12:36:27.845Z,1.00
2019-06-07T12:38:29.521Z,1.00
2019-06-07T12:40:32.536Z,1.00
2019-06-07T12:42:34.474Z,1.00
2019-06-07T12:44:36.167Z,1.00
2019-06-07T12:46:37.847Z,1.00
2019-06-07T12:48:39.631Z,1.00
2019-06-07T12:50:43.066Z,1.00
2019-06-07T12:52:44.868Z,1.00
2019-06-07T12:54:46.551Z,1.00
2019-06-07T12:56:48.217Z,1.00
2019-06-07T12:58:49.893Z,1.00
2019-06-07T13:00:51.561Z,1.00
2019-06-07T13:02:53.239Z,1.00
2019-06-07T13:04:54.914Z,1.00
2019-06-07T13:06:56.578Z,1.00
2019-06-07T13:08:58.520Z,1.00
2019-06-07T13:11:13.973Z,1.00
2019-06-07T13:13:04.417Z,1.00
2019-06-07T13:15:06.624Z,1.00
2019-06-07T13:17:08.394Z,1.00
2019-06-07T13:19:10.073Z,1.00
2019-06-07T13:21:11.775Z,1.00
2019-06-07T13:23:13.429Z,1.00
2019-06-07T13:25:16.286Z,1.00
2019-06-07T13:27:18.348Z,1.00
2019-06-07T13:29:20.460Z,1.00
2019-06-07T13:31:23.394Z,1.00
2019-06-07T13:33:25.818Z,1.00
2019-06-07T13:35:29.612Z,1.00
2019-06-07T13:37:31.985Z,1.00
2019-06-07T13:39:33.917Z,1.00
2019-06-07T13:41:42.437Z,1.00
2019-06-07T13:43:39.146Z,1.00
2019-06-07T13:45:40.813Z,1.00
2019-06-07T13:47:42.811Z,1.00
2019-06-07T13:49:44.733Z,1.00
2019-06-07T13:51:46.425Z,1.00
2019-06-07T13:53:48.128Z,1.00
2019-06-07T13:55:50.206Z,1.00
2019-06-07T13:57:51.877Z,1.00
2019-06-07T13:59:54.141Z,1.00
2019-06-07T14:01:55.815Z,1.00
2019-06-07T14:03:57.614Z,1.00
2019-06-07T14:05:59.310Z,1.00
2019-06-07T14:08:01.271Z,1.00
2019-06-07T14:10:03.775Z,1.00
2019-06-07T14:12:05.438Z,1.00
2019-06-07T14:14:07.116Z,1.00
2019-06-07T14:16:08.807Z,1.00
2019-06-07T14:18:10.563Z,1.00
2019-06-07T14:20:12.387Z,1.00
2019-06-07T14:22:14.477Z,1.00
2019-06-07T14:24:16.178Z,1.00
2019-06-07T14:26:17.865Z,1.00
2019-06-07T14:28:19.563Z,1.00
2019-06-07T14:30:21.784Z,1.00
2019-06-07T14:32:24.951Z,2.10
2019-06-07T14:34:26.758Z,1.00
2019-06-07T14:36:28.943Z,1.00
2019-06-07T14:38:35.025Z,1.00
2019-06-07T14:40:34.566Z,1.00
2019-06-07T14:42:36.242Z,1.00
2019-06-07T14:44:37.915Z,1.00
2019-06-07T14:46:39.591Z,1.00
2019-06-07T14:48:41.580Z,1.40
2019-06-07T14:50:43.276Z,1.00
2019-06-07T14:52:45.323Z,2.80
2019-06-07T14:54:47.065Z,1.00
2019-06-07T14:56:48.739Z,1.00
2019-06-07T14:58:50.400Z,1.00
2019-06-07T15:00:52.370Z,1.00
2019-06-07T15:02:54.128Z,1.00
2019-06-07T15:04:56.135Z,1.50
2019-06-07T15:06:57.816Z,2.10
2019-06-07T15:08:59.475Z,1.00
2019-06-07T15:11:01.238Z,1.40
2019-06-07T15:13:02.939Z,1.20
2019-06-07T15:15:04.739Z,1.90
2019-06-07T15:17:06.759Z,1.00
2019-06-07T15:19:08.441Z,1.70
2019-06-07T15:21:10.183Z,1.00
2019-06-07T15:23:11.859Z,1.70
2019-06-07T15:25:13.650Z,2.20
2019-06-07T15:27:15.461Z,5.00
2019-06-07T15:29:17.242Z,4.50
2019-06-07T15:31:19.013Z,3.10
2019-06-07T15:33:20.682Z,4.90
2019-06-07T15:35:22.341Z,2.50
2019-06-07T15:37:24.349Z,3.80
2019-06-07T15:39:26.053Z,5.80
2019-06-07T15:41:28.950Z,4.60
2019-06-07T15:43:33.126Z,2.90
2019-06-07T15:45:35.607Z,3.40
2019-06-07T15:47:38.321Z,3.10
2019-06-07T15:49:40.549Z,3.10
2019-06-07T15:51:42.245Z,3.80
2019-06-07T15:53:44.874Z,4.30
2019-06-07T15:55:46.959Z,4.50
2019-06-07T15:57:48.636Z,4.80
2019-06-07T15:59:50.556Z,4.70
2019-06-07T16:01:52.270Z,4.80
2019-06-07T16:03:54.020Z,6.50
2019-06-07T16:05:55.690Z,7.10
2019-06-07T16:07:57.372Z,7.70
2019-06-07T16:09:59.030Z,7.50
2019-06-07T16:12:00.713Z,4.30
2019-06-07T16:14:10.964Z,3.80
2019-06-07T16:16:12.760Z,4.00
2019-06-07T16:18:14.684Z,5.70
2019-06-07T16:20:16.353Z,6.30
2019-06-07T16:22:18.357Z,4.70
2019-06-07T16:24:20.030Z,2.80
2019-06-07T16:26:21.707Z,5.70
2019-06-07T16:28:23.769Z,5.60
2019-06-07T16:30:25.454Z,5.50
2019-06-07T16:32:27.437Z,5.70
2019-06-07T16:34:29.118Z,7.00
2019-06-07T16:36:30.796Z,7.40
2019-06-07T16:38:32.474Z,6.80
2019-06-07T16:40:34.154Z,8.40
2019-06-07T16:42:36.299Z,5.50
2019-06-07T16:44:38.798Z,8.70
2019-06-07T16:46:40.745Z,9.40
2019-06-07T16:48:42.945Z,7.00
2019-06-07T16:50:45.139Z,6.40
2019-06-07T16:52:48.627Z,7.90
2019-06-07T16:54:50.640Z,9.00
2019-06-07T16:56:52.323Z,6.90
2019-06-07T16:58:54.084Z,10.30
2019-06-07T17:00:55.802Z,7.40
2019-06-07T17:02:57.657Z,9.60
2019-06-07T17:04:59.328Z,9.00
2019-06-07T17:07:01.005Z,12.40
2019-06-07T17:09:05.212Z,10.20
2019-06-07T17:11:06.877Z,14.10
2019-06-07T17:13:08.557Z,12.40
2019-06-07T17:15:10.873Z,11.70
2019-06-07T17:17:12.804Z,11.50
2019-06-07T17:19:14.768Z,10.20
2019-06-07T17:21:16.722Z,11.70
2019-06-07T17:23:18.397Z,11.40
2019-06-07T17:25:20.350Z,13.30
2019-06-07T17:27:22.020Z,13.70
2019-06-07T17:29:23.691Z,13.70
2019-06-07T17:31:25.382Z,13.30
2019-06-07T17:33:27.072Z,12.90
2019-06-07T17:35:28.893Z,11.90
2019-06-07T17:37:30.574Z,13.80
2019-06-07T17:39:32.261Z,13.90
2019-06-07T17:41:50.295Z,13.70
2019-06-07T17:43:49.473Z,13.80
2019-06-07T17:45:41.754Z,12.40
2019-06-07T17:47:43.758Z,12.40
2019-06-07T17:49:45.900Z,15.90
2019-06-07T17:51:48.043Z,15.50
2019-06-07T17:53:49.998Z,12.70
2019-06-07T17:55:52.379Z,15.80
2019-06-07T17:57:54.374Z,15.90
2019-06-07T17:59:56.044Z,16.20
2019-06-07T18:02:15.010Z,17.30
2019-06-07T18:04:01.643Z,16.60
2019-06-07T18:06:03.514Z,16.10
2019-06-07T18:08:05.177Z,17.30
2019-06-07T18:10:08.681Z,18.40
2019-06-07T18:12:10.614Z,16.40
2019-06-07T18:14:12.350Z,16.50
2019-06-07T18:16:14.782Z,18.70
2019-06-07T18:18:16.758Z,18.10
2019-06-07T18:20:18.475Z,20.30
2019-06-07T18:22:20.289Z,20.20
2019-06-07T18:24:22.002Z,19.70
2019-06-07T18:26:23.724Z,20.50
2019-06-07T18:28:25.410Z,19.70
2019-06-07T18:30:27.094Z,20.20
2019-06-07T18:32:28.822Z,20.70
2019-06-07T18:34:30.824Z,22.10
2019-06-07T18:36:32.605Z,24.50
2019-06-07T18:38:34.570Z,23.80
2019-06-07T18:40:36.326Z,23.40
2019-06-07T18:42:38.078Z,24.10
2019-06-07T18:44:39.804Z,25.50
2019-06-07T18:46:41.471Z,26.10
2019-06-07T18:48:43.196Z,27.10
2019-06-07T18:50:44.906Z,28.90
2019-06-07T18:52:46.794Z,29.50
2019-06-07T18:54:48.917Z,30.30
2019-06-07T18:56:51.246Z,31.50
2019-06-07T18:58:53.229Z,32.90
2019-06-07T19:00:55.535Z,33.80
2019-06-07T19:02:58.101Z,33.20
2019-06-07T19:05:00.634Z,33.50
2019-06-07T19:07:02.783Z,36.60
2019-06-07T19:09:05.103Z,36.30
2019-06-07T19:11:06.801Z,34.90
2019-06-07T19:13:08.860Z,35.00
2019-06-07T19:15:12.470Z,34.90
2019-06-07T19:17:14.236Z,34.20
2019-06-07T19:19:16.236Z,33.70
2019-06-07T19:21:17.937Z,34.30
2019-06-07T19:23:19.810Z,32.30
2019-06-07T19:25:21.778Z,36.20
2019-06-07T19:27:23.729Z,35.30
2019-06-07T19:29:25.702Z,34.40
2019-06-07T19:31:27.637Z,36.20
2019-06-07T19:33:29.846Z,34.80
2019-06-07T19:35:31.820Z,35.20
2019-06-07T19:37:33.504Z,39.30
2019-06-07T19:39:35.190Z,37.10
2019-06-07T19:41:37.390Z,36.30
2019-06-07T19:43:39.059Z,37.00
2019-06-07T19:45:41.060Z,39.20
2019-06-07T19:47:43.011Z,45.20
2019-06-07T19:49:45.259Z,54.10
2019-06-07T19:51:46.934Z,59.20
2019-06-07T19:53:48.637Z,69.90
2019-06-07T19:55:50.306Z,81.40
2019-06-07T19:57:53.262Z,92.60
2019-06-07T19:59:55.509Z,95.20
2019-06-07T20:01:57.885Z,95.60
2019-06-07T20:04:00.023Z,94.60
2019-06-07T20:06:02.351Z,92.40
2019-06-07T20:08:04.880Z,94.50
2019-06-07T20:10:06.962Z,94.20
2019-06-07T20:12:08.647Z,96.40
2019-06-07T20:14:10.597Z,96.60
2019-06-07T20:16:12.270Z,97.10
2019-06-07T20:18:13.954Z,99.00
2019-06-07T20:20:16.449Z,99.60
2019-06-07T20:22:18.196Z,98.50
2019-06-07T20:24:26.991Z,99.80
2019-06-07T20:26:23.484Z,94.10
2019-06-07T20:28:25.136Z,95.90
2019-06-07T20:30:26.863Z,95.70
2019-06-07T20:32:28.564Z,92.40
2019-06-07T20:34:30.258Z,93.30
2019-06-07T20:36:31.927Z,92.60
2019-06-07T20:38:33.593Z,95.10
2019-06-07T20:40:35.277Z,95.50
2019-06-07T20:42:37.213Z,95.20
2019-06-07T20:44:38.888Z,95.70
2019-06-07T20:46:40.822Z,96.30
2019-06-07T20:48:42.786Z,97.10
2019-06-07T20:50:45.058Z,97.70
2019-06-07T20:52:46.730Z,98.10
2019-06-07T20:54:48.445Z,96.30
2019-06-07T20:56:50.421Z,96.60
2019-06-07T20:58:52.090Z,95.50
2019-06-07T21:00:53.784Z,97.10
2019-06-07T21:02:55.780Z,98.20
2019-06-07T21:04:58.961Z,98.40
2019-06-07T21:07:01.357Z,96.80
2019-06-07T21:09:05.597Z,97.30
2019-06-07T21:11:07.852Z,94.00
2019-06-07T21:13:10.210Z,95.20
2019-06-07T21:15:14.557Z,95.30
2019-06-07T21:17:15.706Z,94.60
2019-06-07T21:19:17.417Z,95.40
2019-06-07T21:21:19.087Z,95.40
2019-06-07T21:23:20.770Z,95.60
2019-06-07T21:25:22.473Z,95.20
2019-06-07T21:27:24.140Z,94.60
2019-06-07T21:29:25.836Z,95.30
2019-06-07T21:31:27.512Z,95.20
2019-06-07T21:33:29.186Z,96.10
2019-06-07T21:35:30.882Z,93.30
2019-06-07T21:37:32.565Z,93.40
2019-06-07T21:39:34.241Z,91.30
2019-06-07T21:41:35.973Z,91.30
2019-06-07T21:43:37.930Z,91.20
2019-06-07T21:45:39.782Z,91.50
2019-06-07T21:47:41.758Z,92.10
2019-06-07T21:49:43.627Z,92.30
2019-06-07T21:51:45.395Z,91.80
2019-06-07T21:53:47.048Z,73.70
2019-06-07T21:55:49.087Z,83.50
2019-06-07T21:57:50.786Z,81.90
2019-06-07T21:59:52.454Z,80.60
2019-06-07T22:01:54.146Z,83.40
2019-06-07T22:03:55.818Z,83.50
2019-06-07T22:05:57.497Z,87.50
2019-06-07T22:07:59.164Z,87.70
2019-06-07T22:10:00.834Z,81.20
2019-06-07T22:12:04.352Z,81.40
2019-06-07T22:14:06.326Z,90.10
2019-06-07T22:16:24.557Z,82.20
2019-06-07T22:18:12.956Z,81.10
2019-06-07T22:20:14.839Z,82.60
2019-06-07T22:22:16.591Z,82.30
2019-06-07T22:24:18.252Z,82.80
2019-06-07T22:26:20.249Z,84.20
2019-06-07T22:28:21.917Z,87.20
2019-06-07T22:30:23.585Z,87.20
2019-06-07T22:32:25.264Z,81.60
2019-06-07T22:34:27.039Z,81.00
2019-06-07T22:36:28.721Z,87.80
2019-06-07T22:38:30.420Z,88.10
2019-06-07T22:40:32.086Z,87.80
2019-06-07T22:42:33.770Z,75.70
2019-06-07T22:44:35.450Z,78.40
2019-06-07T22:46:37.970Z,65.50
2019-06-07T22:48:39.803Z,66.70
2019-06-07T22:50:41.486Z,75.80
2019-06-07T22:52:43.169Z,80.20
2019-06-07T22:54:44.838Z,80.50
2019-06-07T22:56:51.632Z,84.50
2019-06-07T22:58:53.384Z,80.50
2019-06-07T23:00:55.093Z,78.40
2019-06-07T23:02:56.868Z,78.20
2019-06-07T23:04:58.577Z,78.30
2019-06-07T23:07:00.589Z,85.50
2019-06-07T23:09:02.754Z,88.50
2019-06-07T23:11:04.439Z,87.70
2019-06-07T23:13:06.110Z,90.60
2019-06-07T23:15:07.785Z,90.40
2019-06-07T23:17:09.953Z,89.60
2019-06-07T23:19:12.003Z,90.00
2019-06-07T23:21:14.175Z,89.20
2019-06-07T23:23:17.266Z,90.10
2019-06-07T23:25:23.840Z,91.30
2019-06-07T23:27:23.294Z,92.40
2019-06-07T23:29:24.975Z,93.40
2019-06-07T23:31:26.644Z,93.00
2019-06-07T23:33:28.318Z,92.80
2019-06-07T23:35:30.303Z,91.50
2019-06-07T23:37:31.973Z,93.00
2019-06-07T23:39:33.649Z,93.20
2019-06-07T23:41:35.354Z,93.60
2019-06-07T23:43:37.024Z,93.50
2019-06-07T23:45:38.691Z,93.90
2019-06-07T23:47:40.367Z,94.20
2019-06-07T23:49:42.034Z,94.30
2019-06-07T23:51:43.733Z,93.80
2019-06-07T23:53:45.393Z,93.90
2019-06-07T23:55:47.075Z,93.00
2019-06-07T23:57:48.832Z,94.50
2019-06-07T23:59:50.503Z,95.80
